sensor_id;sensor_type;location;lat;lon;timestamp;temperature;humidity
10472;DHT22;5283;48.876;8.962;2024-02-21T00:02:22;4.30;99.90
10472;DHT22;5283;48.876;8.962;2024-02-21T00:04:49;4.30;99.90
10472;DHT22;5283;48.876;8.962;2024-02-21T00:07:16;4.40;99.90
10472;DHT22;5283;48.876;8.962;2024-02-21T00:09:42;4.40;99.90
10472;DHT22;5283;48.876;8.962;2024-02-21T00:12:09;4.40;99.90
10472;DHT22;5283;48.876;8.962;2024-02-21T00:14:36;4.50;99.90
10472;DHT22;5283;48.876;8.962;2024-02-21T00:17:03;4.50;99.90
10472;DHT22;5283;48.876;8.962;2024-02-21T00:19:29;4.50;99.90
10472;DHT22;5283;48.876;8.962;2024-02-21T00:21:56;4.50;99.90
10472;DHT22;5283;48.876;8.962;2024-02-21T00:24:23;4.50;99.90
10472;DHT22;5283;48.876;8.962;2024-02-21T00:26:50;4.60;99.90
10472;DHT22;5283;48.876;8.962;2024-02-21T00:29:17;4.60;99.90
10472;DHT22;5283;48.876;8.962;2024-02-21T00:31:44;4.60;99.90
10472;DHT22;5283;48.876;8.962;2024-02-21T00:34:11;4.60;99.90
10472;DHT22;5283;48.876;8.962;2024-02-21T00:36:39;4.60;99.90
10472;DHT22;5283;48.876;8.962;2024-02-21T00:39:06;4.60;99.90
10472;DHT22;5283;48.876;8.962;2024-02-21T00:41:32;4.70;99.90
10472;DHT22;5283;48.876;8.962;2024-02-21T00:43:59;4.70;99.90
10472;DHT22;5283;48.876;8.962;2024-02-21T00:46:26;4.70;99.90
10472;DHT22;5283;48.876;8.962;2024-02-21T00:48:53;4.80;99.90
10472;DHT22;5283;48.876;8.962;2024-02-21T00:51:20;4.80;99.90
10472;DHT22;5283;48.876;8.962;2024-02-21T00:53:46;4.80;99.90
10472;DHT22;5283;48.876;8.962;2024-02-21T00:56:13;4.90;99.90
10472;DHT22;5283;48.876;8.962;2024-02-21T00:58:40;4.90;99.90
10472;DHT22;5283;48.876;8.962;2024-02-21T01:01:06;4.90;99.90
10472;DHT22;5283;48.876;8.962;2024-02-21T01:03:33;4.90;99.90
10472;DHT22;5283;48.876;8.962;2024-02-21T01:06:00;4.90;99.90
10472;DHT22;5283;48.876;8.962;2024-02-21T01:08:27;4.80;99.90
10472;DHT22;5283;48.876;8.962;2024-02-21T01:10:53;4.80;99.90
10472;DHT22;5283;48.876;8.962;2024-02-21T01:13:20;4.90;99.90
10472;DHT22;5283;48.876;8.962;2024-02-21T01:15:47;4.90;99.90
10472;DHT22;5283;48.876;8.962;2024-02-21T01:18:13;4.90;99.90
10472;DHT22;5283;48.876;8.962;2024-02-21T01:20:41;4.90;99.90
10472;DHT22;5283;48.876;8.962;2024-02-21T01:23:08;5.00;99.90
10472;DHT22;5283;48.876;8.962;2024-02-21T01:25:34;5.00;99.90
10472;DHT22;5283;48.876;8.962;2024-02-21T01:28:01;5.10;99.90
10472;DHT22;5283;48.876;8.962;2024-02-21T01:30:28;5.10;99.90
10472;DHT22;5283;48.876;8.962;2024-02-21T01:32:55;5.10;99.90
10472;DHT22;5283;48.876;8.962;2024-02-21T01:35:21;5.20;99.90
10472;DHT22;5283;48.876;8.962;2024-02-21T01:37:48;5.20;99.90
10472;DHT22;5283;48.876;8.962;2024-02-21T01:40:15;5.20;99.90
10472;DHT22;5283;48.876;8.962;2024-02-21T01:42:43;5.20;99.90
10472;DHT22;5283;48.876;8.962;2024-02-21T01:45:09;5.30;99.90
10472;DHT22;5283;48.876;8.962;2024-02-21T01:47:37;5.30;99.90
10472;DHT22;5283;48.876;8.962;2024-02-21T01:50:04;5.30;99.90
10472;DHT22;5283;48.876;8.962;2024-02-21T01:52:31;5.30;99.90
10472;DHT22;5283;48.876;8.962;2024-02-21T01:55:00;5.30;99.90
10472;DHT22;5283;48.876;8.962;2024-02-21T01:57:27;5.30;99.90
10472;DHT22;5283;48.876;8.962;2024-02-21T01:59:55;5.40;99.90
10472;DHT22;5283;48.876;8.962;2024-02-21T02:02:22;5.40;99.90
10472;DHT22;5283;48.876;8.962;2024-02-21T02:04:49;5.40;99.90
10472;DHT22;5283;48.876;8.962;2024-02-21T02:07:16;5.40;99.90
10472;DHT22;5283;48.876;8.962;2024-02-21T02:09:43;5.40;99.90
10472;DHT22;5283;48.876;8.962;2024-02-21T02:12:10;5.40;99.90
10472;DHT22;5283;48.876;8.962;2024-02-21T02:14:36;5.50;99.90
10472;DHT22;5283;48.876;8.962;2024-02-21T02:17:03;5.50;99.90
10472;DHT22;5283;48.876;8.962;2024-02-21T02:19:30;5.50;99.90
10472;DHT22;5283;48.876;8.962;2024-02-21T02:22:09;5.50;99.90
10472;DHT22;5283;48.876;8.962;2024-02-21T02:24:40;5.50;99.90
10472;DHT22;5283;48.876;8.962;2024-02-21T02:27:07;5.50;99.90
10472;DHT22;5283;48.876;8.962;2024-02-21T02:29:34;5.50;99.90
10472;DHT22;5283;48.876;8.962;2024-02-21T02:32:00;5.50;99.90
10472;DHT22;5283;48.876;8.962;2024-02-21T02:34:27;5.50;99.90
10472;DHT22;5283;48.876;8.962;2024-02-21T02:36:54;5.50;99.90
10472;DHT22;5283;48.876;8.962;2024-02-21T02:39:21;5.50;99.90
10472;DHT22;5283;48.876;8.962;2024-02-21T02:41:48;5.40;99.90
10472;DHT22;5283;48.876;8.962;2024-02-21T02:44:14;5.50;99.90
10472;DHT22;5283;48.876;8.962;2024-02-21T02:46:41;5.50;99.90
10472;DHT22;5283;48.876;8.962;2024-02-21T02:49:08;5.40;99.90
10472;DHT22;5283;48.876;8.962;2024-02-21T02:51:35;5.40;99.90
10472;DHT22;5283;48.876;8.962;2024-02-21T02:54:02;5.40;99.90
10472;DHT22;5283;48.876;8.962;2024-02-21T02:56:29;5.30;99.90
10472;DHT22;5283;48.876;8.962;2024-02-21T02:58:56;5.20;99.90
10472;DHT22;5283;48.876;8.962;2024-02-21T03:01:22;5.20;99.90
10472;DHT22;5283;48.876;8.962;2024-02-21T03:03:49;5.10;99.90
10472;DHT22;5283;48.876;8.962;2024-02-21T03:06:16;5.00;99.90
10472;DHT22;5283;48.876;8.962;2024-02-21T03:08:44;5.00;99.90
10472;DHT22;5283;48.876;8.962;2024-02-21T03:11:11;4.90;99.90
10472;DHT22;5283;48.876;8.962;2024-02-21T03:13:38;4.80;99.90
10472;DHT22;5283;48.876;8.962;2024-02-21T03:16:05;4.80;99.90
10472;DHT22;5283;48.876;8.962;2024-02-21T03:18:32;4.70;99.90
10472;DHT22;5283;48.876;8.962;2024-02-21T03:20:59;4.70;99.90
10472;DHT22;5283;48.876;8.962;2024-02-21T03:23:26;4.60;99.90
10472;DHT22;5283;48.876;8.962;2024-02-21T03:25:52;4.50;99.90
10472;DHT22;5283;48.876;8.962;2024-02-21T03:28:19;4.50;99.90
10472;DHT22;5283;48.876;8.962;2024-02-21T03:30:46;4.40;99.90
10472;DHT22;5283;48.876;8.962;2024-02-21T03:33:12;4.50;99.90
10472;DHT22;5283;48.876;8.962;2024-02-21T03:35:39;4.50;99.90
10472;DHT22;5283;48.876;8.962;2024-02-21T03:38:06;4.50;99.90
10472;DHT22;5283;48.876;8.962;2024-02-21T03:40:32;4.50;99.90
10472;DHT22;5283;48.876;8.962;2024-02-21T03:42:59;4.60;99.90
10472;DHT22;5283;48.876;8.962;2024-02-21T03:45:26;4.60;99.90
10472;DHT22;5283;48.876;8.962;2024-02-21T03:47:52;4.60;99.90
10472;DHT22;5283;48.876;8.962;2024-02-21T03:50:19;4.50;99.90
10472;DHT22;5283;48.876;8.962;2024-02-21T03:52:46;4.40;99.90
10472;DHT22;5283;48.876;8.962;2024-02-21T03:55:12;4.30;99.90
10472;DHT22;5283;48.876;8.962;2024-02-21T03:57:39;4.20;99.90
10472;DHT22;5283;48.876;8.962;2024-02-21T04:00:06;4.00;99.90
10472;DHT22;5283;48.876;8.962;2024-02-21T04:02:37;3.90;99.90
10472;DHT22;5283;48.876;8.962;2024-02-21T04:05:04;3.70;99.90
10472;DHT22;5283;48.876;8.962;2024-02-21T04:07:31;3.60;99.90
10472;DHT22;5283;48.876;8.962;2024-02-21T04:09:58;3.40;99.90
10472;DHT22;5283;48.876;8.962;2024-02-21T04:12:24;3.40;99.90
10472;DHT22;5283;48.876;8.962;2024-02-21T04:14:51;3.40;99.90
10472;DHT22;5283;48.876;8.962;2024-02-21T04:17:18;3.40;99.90
10472;DHT22;5283;48.876;8.962;2024-02-21T04:19:44;3.30;99.90
10472;DHT22;5283;48.876;8.962;2024-02-21T04:22:11;3.40;99.90
10472;DHT22;5283;48.876;8.962;2024-02-21T04:24:38;3.30;99.90
10472;DHT22;5283;48.876;8.962;2024-02-21T04:27:04;3.40;99.90
10472;DHT22;5283;48.876;8.962;2024-02-21T04:29:31;3.50;99.90
10472;DHT22;5283;48.876;8.962;2024-02-21T04:31:58;3.50;99.90
10472;DHT22;5283;48.876;8.962;2024-02-21T04:34:24;3.60;99.90
10472;DHT22;5283;48.876;8.962;2024-02-21T04:36:51;3.50;99.90
10472;DHT22;5283;48.876;8.962;2024-02-21T04:39:19;3.40;99.90
10472;DHT22;5283;48.876;8.962;2024-02-21T04:41:46;3.30;99.90
10472;DHT22;5283;48.876;8.962;2024-02-21T04:44:12;3.40;99.90
10472;DHT22;5283;48.876;8.962;2024-02-21T04:46:42;3.50;99.90
10472;DHT22;5283;48.876;8.962;2024-02-21T04:49:09;3.50;99.90
10472;DHT22;5283;48.876;8.962;2024-02-21T04:51:35;3.40;99.90
10472;DHT22;5283;48.876;8.962;2024-02-21T04:54:03;3.40;99.90
10472;DHT22;5283;48.876;8.962;2024-02-21T04:56:30;3.20;99.90
10472;DHT22;5283;48.876;8.962;2024-02-21T04:58:56;3.10;99.90
10472;DHT22;5283;48.876;8.962;2024-02-21T05:01:23;3.00;99.90
10472;DHT22;5283;48.876;8.962;2024-02-21T05:03:50;2.90;99.90
10472;DHT22;5283;48.876;8.962;2024-02-21T05:06:17;2.90;99.90
10472;DHT22;5283;48.876;8.962;2024-02-21T05:08:43;2.80;99.90
10472;DHT22;5283;48.876;8.962;2024-02-21T05:11:10;2.80;99.90
10472;DHT22;5283;48.876;8.962;2024-02-21T05:13:37;2.80;99.90
10472;DHT22;5283;48.876;8.962;2024-02-21T05:16:04;2.90;99.90
10472;DHT22;5283;48.876;8.962;2024-02-21T05:18:30;2.90;99.90
10472;DHT22;5283;48.876;8.962;2024-02-21T05:20:57;2.90;99.90
10472;DHT22;5283;48.876;8.962;2024-02-21T05:23:25;3.00;99.90
10472;DHT22;5283;48.876;8.962;2024-02-21T05:25:51;3.00;99.90
10472;DHT22;5283;48.876;8.962;2024-02-21T05:28:18;3.00;99.90
10472;DHT22;5283;48.876;8.962;2024-02-21T05:30:45;2.90;99.90
10472;DHT22;5283;48.876;8.962;2024-02-21T05:33:12;2.90;99.90
10472;DHT22;5283;48.876;8.962;2024-02-21T05:35:39;2.90;99.90
10472;DHT22;5283;48.876;8.962;2024-02-21T05:38:06;2.90;99.90
10472;DHT22;5283;48.876;8.962;2024-02-21T05:40:37;2.90;99.90
10472;DHT22;5283;48.876;8.962;2024-02-21T05:43:04;2.80;99.90
10472;DHT22;5283;48.876;8.962;2024-02-21T05:45:31;2.80;99.90
10472;DHT22;5283;48.876;8.962;2024-02-21T05:47:58;2.80;99.90
10472;DHT22;5283;48.876;8.962;2024-02-21T05:50:25;2.80;99.90
10472;DHT22;5283;48.876;8.962;2024-02-21T05:52:54;2.70;99.90
10472;DHT22;5283;48.876;8.962;2024-02-21T05:55:21;2.60;99.90
10472;DHT22;5283;48.876;8.962;2024-02-21T05:57:49;2.50;99.90
10472;DHT22;5283;48.876;8.962;2024-02-21T06:00:16;2.40;99.90
10472;DHT22;5283;48.876;8.962;2024-02-21T06:02:43;2.40;99.90
10472;DHT22;5283;48.876;8.962;2024-02-21T06:05:09;2.30;99.90
10472;DHT22;5283;48.876;8.962;2024-02-21T06:07:36;2.20;99.90
10472;DHT22;5283;48.876;8.962;2024-02-21T06:10:03;2.20;99.90
10472;DHT22;5283;48.876;8.962;2024-02-21T06:12:30;2.20;99.90
10472;DHT22;5283;48.876;8.962;2024-02-21T06:14:57;2.10;99.90
10472;DHT22;5283;48.876;8.962;2024-02-21T06:17:24;2.10;99.90
10472;DHT22;5283;48.876;8.962;2024-02-21T06:19:50;2.00;99.90
10472;DHT22;5283;48.876;8.962;2024-02-21T06:22:17;2.00;99.90
10472;DHT22;5283;48.876;8.962;2024-02-21T06:24:44;1.90;99.90
10472;DHT22;5283;48.876;8.962;2024-02-21T06:27:11;2.00;99.90
10472;DHT22;5283;48.876;8.962;2024-02-21T06:29:37;2.10;99.90
10472;DHT22;5283;48.876;8.962;2024-02-21T06:32:05;2.00;99.90
10472;DHT22;5283;48.876;8.962;2024-02-21T06:34:32;2.00;99.90
10472;DHT22;5283;48.876;8.962;2024-02-21T06:37:00;2.00;99.90
10472;DHT22;5283;48.876;8.962;2024-02-21T06:39:26;2.00;99.90
10472;DHT22;5283;48.876;8.962;2024-02-21T06:41:56;2.10;99.90
10472;DHT22;5283;48.876;8.962;2024-02-21T06:44:24;2.10;99.90
10472;DHT22;5283;48.876;8.962;2024-02-21T06:46:51;2.20;99.90
10472;DHT22;5283;48.876;8.962;2024-02-21T06:49:18;2.30;99.90
10472;DHT22;5283;48.876;8.962;2024-02-21T06:51:45;2.30;99.90
10472;DHT22;5283;48.876;8.962;2024-02-21T06:54:12;2.30;99.90
10472;DHT22;5283;48.876;8.962;2024-02-21T06:56:40;2.40;99.90
10472;DHT22;5283;48.876;8.962;2024-02-21T06:59:07;2.50;99.90
10472;DHT22;5283;48.876;8.962;2024-02-21T07:01:33;2.50;99.90
10472;DHT22;5283;48.876;8.962;2024-02-21T07:04:00;2.50;99.90
10472;DHT22;5283;48.876;8.962;2024-02-21T07:06:27;2.60;99.90
10472;DHT22;5283;48.876;8.962;2024-02-21T07:08:53;2.70;99.90
10472;DHT22;5283;48.876;8.962;2024-02-21T07:11:20;2.80;99.90
10472;DHT22;5283;48.876;8.962;2024-02-21T07:13:47;2.90;99.90
10472;DHT22;5283;48.876;8.962;2024-02-21T07:16:13;3.00;99.90
10472;DHT22;5283;48.876;8.962;2024-02-21T07:18:40;3.10;99.90
10472;DHT22;5283;48.876;8.962;2024-02-21T07:21:07;3.20;99.90
10472;DHT22;5283;48.876;8.962;2024-02-21T07:23:33;3.40;99.90
10472;DHT22;5283;48.876;8.962;2024-02-21T07:26:00;3.60;99.90
10472;DHT22;5283;48.876;8.962;2024-02-21T07:28:27;3.70;99.90
10472;DHT22;5283;48.876;8.962;2024-02-21T07:30:54;3.90;99.90
10472;DHT22;5283;48.876;8.962;2024-02-21T07:33:21;4.10;99.90
10472;DHT22;5283;48.876;8.962;2024-02-21T07:35:47;4.20;99.90
10472;DHT22;5283;48.876;8.962;2024-02-21T07:38:14;4.40;99.90
10472;DHT22;5283;48.876;8.962;2024-02-21T07:40:41;4.60;99.90
10472;DHT22;5283;48.876;8.962;2024-02-21T07:43:07;4.70;99.90
10472;DHT22;5283;48.876;8.962;2024-02-21T07:45:34;4.90;99.90
10472;DHT22;5283;48.876;8.962;2024-02-21T07:48:01;5.00;99.90
10472;DHT22;5283;48.876;8.962;2024-02-21T07:50:28;5.20;99.90
10472;DHT22;5283;48.876;8.962;2024-02-21T07:52:55;5.30;99.90
10472;DHT22;5283;48.876;8.962;2024-02-21T07:55:22;5.50;99.90
10472;DHT22;5283;48.876;8.962;2024-02-21T07:57:48;5.70;99.90
10472;DHT22;5283;48.876;8.962;2024-02-21T08:00:16;5.80;99.90
10472;DHT22;5283;48.876;8.962;2024-02-21T08:02:46;6.00;99.90
10472;DHT22;5283;48.876;8.962;2024-02-21T08:05:13;6.20;99.90
10472;DHT22;5283;48.876;8.962;2024-02-21T08:07:40;6.30;99.90
10472;DHT22;5283;48.876;8.962;2024-02-21T08:10:07;6.40;99.90
10472;DHT22;5283;48.876;8.962;2024-02-21T08:12:37;6.50;99.90
10472;DHT22;5283;48.876;8.962;2024-02-21T08:15:05;6.60;99.90
10472;DHT22;5283;48.876;8.962;2024-02-21T08:17:31;6.80;99.90
10472;DHT22;5283;48.876;8.962;2024-02-21T08:19:58;7.00;99.90
10472;DHT22;5283;48.876;8.962;2024-02-21T08:22:25;7.20;99.90
10472;DHT22;5283;48.876;8.962;2024-02-21T08:24:52;7.30;99.90
10472;DHT22;5283;48.876;8.962;2024-02-21T08:27:19;7.60;99.90
10472;DHT22;5283;48.876;8.962;2024-02-21T08:29:46;7.80;99.90
10472;DHT22;5283;48.876;8.962;2024-02-21T08:32:13;8.00;99.90
10472;DHT22;5283;48.876;8.962;2024-02-21T08:34:39;8.10;99.90
10472;DHT22;5283;48.876;8.962;2024-02-21T08:37:06;7.90;99.90
10472;DHT22;5283;48.876;8.962;2024-02-21T08:39:33;7.90;99.90
10472;DHT22;5283;48.876;8.962;2024-02-21T08:41:59;8.10;99.90
10472;DHT22;5283;48.876;8.962;2024-02-21T08:44:28;8.30;99.90
10472;DHT22;5283;48.876;8.962;2024-02-21T08:46:55;8.30;99.90
10472;DHT22;5283;48.876;8.962;2024-02-21T08:49:22;8.50;99.90
10472;DHT22;5283;48.876;8.962;2024-02-21T08:51:49;8.60;99.90
10472;DHT22;5283;48.876;8.962;2024-02-21T08:54:16;8.70;99.90
10472;DHT22;5283;48.876;8.962;2024-02-21T08:56:43;8.80;99.90
10472;DHT22;5283;48.876;8.962;2024-02-21T08:59:10;8.70;99.90
10472;DHT22;5283;48.876;8.962;2024-02-21T09:01:36;8.90;99.90
10472;DHT22;5283;48.876;8.962;2024-02-21T09:04:03;9.00;99.90
10472;DHT22;5283;48.876;8.962;2024-02-21T09:06:30;8.90;99.90
10472;DHT22;5283;48.876;8.962;2024-02-21T09:08:59;9.00;99.90
10472;DHT22;5283;48.876;8.962;2024-02-21T09:11:26;9.20;99.90
10472;DHT22;5283;48.876;8.962;2024-02-21T09:13:54;9.30;99.90
10472;DHT22;5283;48.876;8.962;2024-02-21T09:16:21;9.30;99.90
10472;DHT22;5283;48.876;8.962;2024-02-21T09:18:47;9.30;99.90
10472;DHT22;5283;48.876;8.962;2024-02-21T09:21:14;9.00;99.90
10472;DHT22;5283;48.876;8.962;2024-02-21T09:23:41;8.80;99.90
10472;DHT22;5283;48.876;8.962;2024-02-21T09:26:07;8.70;99.90
10472;DHT22;5283;48.876;8.962;2024-02-21T09:28:37;9.00;99.90
10472;DHT22;5283;48.876;8.962;2024-02-21T09:31:03;9.10;99.90
10472;DHT22;5283;48.876;8.962;2024-02-21T09:33:30;9.30;99.90
10472;DHT22;5283;48.876;8.962;2024-02-21T09:35:57;9.50;99.90
10472;DHT22;5283;48.876;8.962;2024-02-21T09:38:24;9.50;99.90
10472;DHT22;5283;48.876;8.962;2024-02-21T09:40:59;9.50;99.90
10472;DHT22;5283;48.876;8.962;2024-02-21T09:43:29;9.40;99.90
10472;DHT22;5283;48.876;8.962;2024-02-21T09:45:58;9.50;99.90
10472;DHT22;5283;48.876;8.962;2024-02-21T09:48:30;9.60;99.90
10472;DHT22;5283;48.876;8.962;2024-02-21T09:51:01;9.60;99.90
10472;DHT22;5283;48.876;8.962;2024-02-21T09:53:31;9.70;99.90
10472;DHT22;5283;48.876;8.962;2024-02-21T09:55:58;9.80;99.90
10472;DHT22;5283;48.876;8.962;2024-02-21T09:58:26;9.90;99.90
10472;DHT22;5283;48.876;8.962;2024-02-21T10:00:54;9.90;99.90
10472;DHT22;5283;48.876;8.962;2024-02-21T10:03:20;10.10;99.90
10472;DHT22;5283;48.876;8.962;2024-02-21T10:05:48;10.10;99.90
10472;DHT22;5283;48.876;8.962;2024-02-21T10:08:20;10.00;99.90
10472;DHT22;5283;48.876;8.962;2024-02-21T10:10:46;10.10;99.90
10472;DHT22;5283;48.876;8.962;2024-02-21T10:13:29;10.20;99.90
10472;DHT22;5283;48.876;8.962;2024-02-21T10:16:03;10.40;99.90
10472;DHT22;5283;48.876;8.962;2024-02-21T10:18:30;10.50;99.90
10472;DHT22;5283;48.876;8.962;2024-02-21T10:21:05;10.70;99.90
10472;DHT22;5283;48.876;8.962;2024-02-21T10:23:45;11.00;99.90
10472;DHT22;5283;48.876;8.962;2024-02-21T10:26:13;11.00;99.90
10472;DHT22;5283;48.876;8.962;2024-02-21T10:28:39;10.90;99.90
10472;DHT22;5283;48.876;8.962;2024-02-21T10:31:11;11.00;99.90
10472;DHT22;5283;48.876;8.962;2024-02-21T10:33:54;10.90;99.90
10472;DHT22;5283;48.876;8.962;2024-02-21T10:36:20;11.20;99.90
10472;DHT22;5283;48.876;8.962;2024-02-21T10:38:47;11.00;99.90
10472;DHT22;5283;48.876;8.962;2024-02-21T10:41:14;11.20;99.90
10472;DHT22;5283;48.876;8.962;2024-02-21T10:43:47;11.40;99.90
10472;DHT22;5283;48.876;8.962;2024-02-21T10:46:18;11.80;99.90
10472;DHT22;5283;48.876;8.962;2024-02-21T10:48:46;12.10;99.90
10472;DHT22;5283;48.876;8.962;2024-02-21T10:51:20;12.40;99.90
10472;DHT22;5283;48.876;8.962;2024-02-21T10:56:29;12.60;99.90
10472;DHT22;5283;48.876;8.962;2024-02-21T10:59:01;12.80;99.90
10472;DHT22;5283;48.876;8.962;2024-02-21T11:01:29;12.80;99.90
10472;DHT22;5283;48.876;8.962;2024-02-21T11:04:05;12.80;99.90
10472;DHT22;5283;48.876;8.962;2024-02-21T11:06:33;12.80;99.90
10472;DHT22;5283;48.876;8.962;2024-02-21T11:09:08;12.90;99.90
10472;DHT22;5283;48.876;8.962;2024-02-21T11:11:37;12.80;99.90
10472;DHT22;5283;48.876;8.962;2024-02-21T11:14:09;12.90;99.90
10472;DHT22;5283;48.876;8.962;2024-02-21T11:16:40;13.20;99.90
10472;DHT22;5283;48.876;8.962;2024-02-21T11:19:23;13.30;99.90
10472;DHT22;5283;48.876;8.962;2024-02-21T11:21:51;12.70;99.90
10472;DHT22;5283;48.876;8.962;2024-02-21T11:24:32;12.70;99.90
10472;DHT22;5283;48.876;8.962;2024-02-21T11:27:21;12.60;99.90
10472;DHT22;5283;48.876;8.962;2024-02-21T11:29:54;12.50;99.90
10472;DHT22;5283;48.876;8.962;2024-02-21T11:32:21;12.50;99.90
10472;DHT22;5283;48.876;8.962;2024-02-21T11:34:57;12.60;99.90
10472;DHT22;5283;48.876;8.962;2024-02-21T11:37:32;13.10;99.90
10472;DHT22;5283;48.876;8.962;2024-02-21T11:40:06;13.40;99.90
10472;DHT22;5283;48.876;8.962;2024-02-21T11:42:36;12.90;99.90
10472;DHT22;5283;48.876;8.962;2024-02-21T11:45:03;12.90;99.90
10472;DHT22;5283;48.876;8.962;2024-02-21T11:47:30;13.00;99.90
10472;DHT22;5283;48.876;8.962;2024-02-21T11:49:57;12.90;99.90
10472;DHT22;5283;48.876;8.962;2024-02-21T11:52:25;12.70;99.90
10472;DHT22;5283;48.876;8.962;2024-02-21T11:54:52;12.60;99.90
10472;DHT22;5283;48.876;8.962;2024-02-21T11:57:20;12.80;99.90
10472;DHT22;5283;48.876;8.962;2024-02-21T11:59:47;12.90;99.90
10472;DHT22;5283;48.876;8.962;2024-02-21T12:02:15;13.40;99.90
10472;DHT22;5283;48.876;8.962;2024-02-21T12:04:43;13.60;99.90
10472;DHT22;5283;48.876;8.962;2024-02-21T12:07:10;13.60;99.90
10472;DHT22;5283;48.876;8.962;2024-02-21T12:09:36;13.40;99.90
10472;DHT22;5283;48.876;8.962;2024-02-21T12:12:04;13.40;99.90
10472;DHT22;5283;48.876;8.962;2024-02-21T12:14:33;13.40;99.90
10472;DHT22;5283;48.876;8.962;2024-02-21T12:17:02;13.20;99.90
10472;DHT22;5283;48.876;8.962;2024-02-21T12:19:32;13.10;99.90
10472;DHT22;5283;48.876;8.962;2024-02-21T12:22:00;12.90;99.90
10472;DHT22;5283;48.876;8.962;2024-02-21T12:24:28;12.90;99.90
10472;DHT22;5283;48.876;8.962;2024-02-21T12:26:56;12.90;99.90
10472;DHT22;5283;48.876;8.962;2024-02-21T12:29:24;13.00;99.90
10472;DHT22;5283;48.876;8.962;2024-02-21T12:31:53;13.00;99.90
10472;DHT22;5283;48.876;8.962;2024-02-21T12:34:23;13.00;99.90
10472;DHT22;5283;48.876;8.962;2024-02-21T12:36:52;13.10;99.90
10472;DHT22;5283;48.876;8.962;2024-02-21T12:39:19;13.00;99.90
10472;DHT22;5283;48.876;8.962;2024-02-21T12:41:46;13.10;99.90
10472;DHT22;5283;48.876;8.962;2024-02-21T12:44:13;13.10;99.90
10472;DHT22;5283;48.876;8.962;2024-02-21T12:46:40;13.10;99.90
10472;DHT22;5283;48.876;8.962;2024-02-21T12:49:07;13.20;99.90
10472;DHT22;5283;48.876;8.962;2024-02-21T12:51:36;13.00;99.90
10472;DHT22;5283;48.876;8.962;2024-02-21T12:54:04;13.10;99.90
10472;DHT22;5283;48.876;8.962;2024-02-21T12:56:31;13.00;99.90
10472;DHT22;5283;48.876;8.962;2024-02-21T12:58:58;12.90;99.90
10472;DHT22;5283;48.876;8.962;2024-02-21T13:01:25;13.00;99.90
10472;DHT22;5283;48.876;8.962;2024-02-21T13:03:53;13.00;99.90
10472;DHT22;5283;48.876;8.962;2024-02-21T13:06:20;12.70;99.90
10472;DHT22;5283;48.876;8.962;2024-02-21T13:08:47;12.80;99.90
10472;DHT22;5283;48.876;8.962;2024-02-21T13:11:14;12.80;99.90
10472;DHT22;5283;48.876;8.962;2024-02-21T13:13:40;12.80;99.90
10472;DHT22;5283;48.876;8.962;2024-02-21T13:16:07;13.00;99.90
10472;DHT22;5283;48.876;8.962;2024-02-21T13:18:37;12.90;99.90
10472;DHT22;5283;48.876;8.962;2024-02-21T13:21:09;13.10;99.90
10472;DHT22;5283;48.876;8.962;2024-02-21T13:23:36;13.10;99.90
10472;DHT22;5283;48.876;8.962;2024-02-21T13:26:02;13.10;99.90
10472;DHT22;5283;48.876;8.962;2024-02-21T13:28:29;12.90;99.90
10472;DHT22;5283;48.876;8.962;2024-02-21T13:30:56;12.80;99.90
10472;DHT22;5283;48.876;8.962;2024-02-21T13:33:23;12.80;99.90
10472;DHT22;5283;48.876;8.962;2024-02-21T13:35:50;12.90;99.90
10472;DHT22;5283;48.876;8.962;2024-02-21T13:38:17;12.80;99.90
10472;DHT22;5283;48.876;8.962;2024-02-21T13:40:45;12.60;99.90
10472;DHT22;5283;48.876;8.962;2024-02-21T13:43:12;12.50;99.90
10472;DHT22;5283;48.876;8.962;2024-02-21T13:45:39;12.50;99.90
10472;DHT22;5283;48.876;8.962;2024-02-21T13:48:08;12.70;99.90
10472;DHT22;5283;48.876;8.962;2024-02-21T13:50:37;12.80;99.90
10472;DHT22;5283;48.876;8.962;2024-02-21T13:53:09;12.80;99.90
10472;DHT22;5283;48.876;8.962;2024-02-21T13:55:36;12.60;99.90
10472;DHT22;5283;48.876;8.962;2024-02-21T13:58:03;12.40;99.90
10472;DHT22;5283;48.876;8.962;2024-02-21T14:00:30;12.30;99.90
10472;DHT22;5283;48.876;8.962;2024-02-21T14:02:57;12.30;99.90
10472;DHT22;5283;48.876;8.962;2024-02-21T14:05:24;12.40;99.90
10472;DHT22;5283;48.876;8.962;2024-02-21T14:07:51;12.40;99.90
10472;DHT22;5283;48.876;8.962;2024-02-21T14:10:21;12.10;99.90
10472;DHT22;5283;48.876;8.962;2024-02-21T14:12:48;11.90;99.90
10472;DHT22;5283;48.876;8.962;2024-02-21T14:15:15;11.80;99.90
10472;DHT22;5283;48.876;8.962;2024-02-21T14:17:43;12.00;99.90
10472;DHT22;5283;48.876;8.962;2024-02-21T14:20:10;12.00;99.90
10472;DHT22;5283;48.876;8.962;2024-02-21T14:22:38;12.10;99.90
10472;DHT22;5283;48.876;8.962;2024-02-21T14:25:04;12.10;99.90
10472;DHT22;5283;48.876;8.962;2024-02-21T14:27:34;12.00;99.90
10472;DHT22;5283;48.876;8.962;2024-02-21T14:30:03;11.90;99.90
10472;DHT22;5283;48.876;8.962;2024-02-21T14:32:30;12.00;99.90
10472;DHT22;5283;48.876;8.962;2024-02-21T14:34:57;11.80;99.90
10472;DHT22;5283;48.876;8.962;2024-02-21T14:37:25;11.90;99.90
10472;DHT22;5283;48.876;8.962;2024-02-21T14:39:52;12.10;99.90
10472;DHT22;5283;48.876;8.962;2024-02-21T14:42:19;12.00;99.90
10472;DHT22;5283;48.876;8.962;2024-02-21T14:44:45;12.20;99.90
10472;DHT22;5283;48.876;8.962;2024-02-21T14:47:12;12.20;99.90
10472;DHT22;5283;48.876;8.962;2024-02-21T14:49:39;12.20;99.90
10472;DHT22;5283;48.876;8.962;2024-02-21T14:52:05;12.00;99.90
10472;DHT22;5283;48.876;8.962;2024-02-21T14:54:32;12.00;99.90
10472;DHT22;5283;48.876;8.962;2024-02-21T14:57:00;12.10;99.90
10472;DHT22;5283;48.876;8.962;2024-02-21T14:59:27;12.10;99.90
10472;DHT22;5283;48.876;8.962;2024-02-21T15:01:55;12.10;99.90
10472;DHT22;5283;48.876;8.962;2024-02-21T15:04:21;12.20;99.90
10472;DHT22;5283;48.876;8.962;2024-02-21T15:06:49;12.20;99.90
10472;DHT22;5283;48.876;8.962;2024-02-21T15:09:16;12.20;99.90
10472;DHT22;5283;48.876;8.962;2024-02-21T15:11:45;12.00;99.90
10472;DHT22;5283;48.876;8.962;2024-02-21T15:14:12;12.10;99.90
10472;DHT22;5283;48.876;8.962;2024-02-21T15:16:39;12.20;99.90
10472;DHT22;5283;48.876;8.962;2024-02-21T15:19:07;12.20;99.90
10472;DHT22;5283;48.876;8.962;2024-02-21T15:21:34;12.20;99.90
10472;DHT22;5283;48.876;8.962;2024-02-21T15:24:01;12.20;99.90
10472;DHT22;5283;48.876;8.962;2024-02-21T15:26:28;12.20;99.90
10472;DHT22;5283;48.876;8.962;2024-02-21T15:28:56;12.10;99.90
10472;DHT22;5283;48.876;8.962;2024-02-21T15:31:23;12.10;99.90
10472;DHT22;5283;48.876;8.962;2024-02-21T15:33:51;12.10;99.90
10472;DHT22;5283;48.876;8.962;2024-02-21T15:36:18;12.00;99.90
10472;DHT22;5283;48.876;8.962;2024-02-21T15:38:46;11.60;99.90
10472;DHT22;5283;48.876;8.962;2024-02-21T15:41:13;11.20;99.90
10472;DHT22;5283;48.876;8.962;2024-02-21T15:43:40;11.00;99.90
10472;DHT22;5283;48.876;8.962;2024-02-21T15:46:11;10.90;99.90
10472;DHT22;5283;48.876;8.962;2024-02-21T15:48:39;10.90;99.90
10472;DHT22;5283;48.876;8.962;2024-02-21T15:51:06;10.80;99.90
10472;DHT22;5283;48.876;8.962;2024-02-21T15:53:33;10.80;99.90
10472;DHT22;5283;48.876;8.962;2024-02-21T15:55:59;10.70;99.90
10472;DHT22;5283;48.876;8.962;2024-02-21T15:58:26;10.60;99.90
10472;DHT22;5283;48.876;8.962;2024-02-21T16:00:54;10.60;99.90